NCAR-RAP Real-Time Weather Data

Output produced by METARs form (23 February 2020  02:05 UTC)
found at http://weather.rap.ucar.edu/surface/
 
KIAD 230152Z 16003KT 10SM CLR 02/M11 A3025 RMK AO2 SLP248 T00171106
KIAD 230052Z 18004KT 10SM CLR 03/M11 A3025 RMK AO2 SLP247 T00331111
KIAD 222352Z 19003KT 10SM CLR 05/M12 A3025 RMK AO2 SLP246 T00501117 10128 20044 55001
KIAD 222252Z 20006KT 10SM CLR 08/M13 A3024 RMK AO2 SLP243 T00831133
KIAD 222152Z 20009KT 10SM CLR 12/M14 A3024 RMK AO2 SLP243 T01171144
KIAD 222052Z 20010KT 10SM CLR 12/M14 A3025 RMK AO2 SLP246 T01221139 56026
KIAD 221952Z 21010KT 10SM CLR 12/M16 A3027 RMK AO2 SLP252 T01221161
KIAD 221852Z 29005KT 10SM FEW250 12/M16 A3029 RMK AO2 SLP260 T01171156
KIAD 221752Z VRB05KT 10SM FEW250 10/M14 A3033 RMK AO2 SLP273 T01001139 10100 21078 58026
KIAD 221652Z 24004KT 10SM FEW250 08/M14 A3036 RMK AO2 SLP284 T00831139
KIAD 221552Z 19005KT 10SM FEW250 06/M12 A3039 RMK AO2 SLP293 T00611122
KIAD 221452Z 00000KT 10SM FEW250 03/M11 A3041 RMK AO2 SLP300 T00281106 50006
KIAD 221352Z 00000KT 10SM FEW250 M01/M09 A3042 RMK AO2 SLP303 T10061094
KIAD 221252Z 00000KT 10SM FEW250 M05/M09 A3040 RMK AO2 SLP298 T10501094
KIAD 221152Z 00000KT 10SM CLR M08/M12 A3039 RMK AO2 SLP295 T10781117 11028 21078 53006
KIAD 221052Z 00000KT 10SM CLR M07/M12 A3037 RMK AO2 SLP288 T10671117
KIAD 220952Z 00000KT 10SM CLR M07/M11 A3037 RMK AO2 SLP288 T10721111
KIAD 220852Z 13004KT 10SM CLR M07/M12 A3037 RMK AO2 SLP287 T10721122 56015
KIAD 220752Z 00000KT 10SM CLR M04/M12 A3038 RMK AO2 SLP292 T10441122
KIAD 220652Z 20003KT 10SM CLR M05/M13 A3040 RMK AO2 SLP297 T10501128
KIAD 220552Z 19005KT 10SM CLR M03/M13 A3041 RMK AO2 SLP302 T10331133 11017 21056 56013
KIAD 220452Z 00000KT 10SM CLR M04/M13 A3042 RMK AO2 SLP304 T10441128 400331061
KIAD 220352Z 20004KT 10SM CLR M03/M13 A3044 RMK AO2 SLP311 T10331128
KIAD 220252Z 19003KT 10SM CLR M04/M12 A3045 RMK AO2 SLP316 T10391122 57005
KIAD 220152Z 20003KT 10SM CLR M03/M12 A3046 RMK AO2 SLP318 T10331122
KIAD 220052Z 18003KT 10SM CLR M03/M12 A3046 RMK AO2 SLP319 T10331117
KIAD 212352Z 00000KT 10SM CLR M02/M13 A3047 RMK AO2 SLP321 T10221128 10033 21022 55004
KIAD 212252Z 00000KT 10SM CLR 02/M15 A3046 RMK AO2 SLP318 T00171150
KIAD 212152Z 33005KT 10SM CLR 03/M15 A3047 RMK AO2 SLP320 T00281150
KIAD 212052Z 32007KT 10SM CLR 03/M15 A3048 RMK AO2 SLP324 T00281150 56020
KIAD 211952Z VRB03KT 10SM CLR 02/M13 A3049 RMK AO2 SLP329 T00221133
KIAD 211852Z 31008KT 10SM CLR 02/M13 A3051 RMK AO2 SLP336 T00171133
KIAD 211752Z 35007KT 10SM CLR 01/M13 A3054 RMK AO2 SLP344 T00061133 10011 21061 58010
KIAD 211652Z 36007KT 10SM CLR M01/M14 A3056 RMK AO2 SLP353 T10111139
KIAD 211552Z 36011KT 10SM CLR M02/M13 A3057 RMK AO2 SLP355 T10171133
KIAD 211452Z 33011KT 10SM CLR M03/M14 A3057 RMK AO2 SLP354 T10281139 51013
KIAD 211352Z 01013KT 10SM CLR M04/M14 A3057 RMK AO2 SLP354 T10391144
KIAD 211252Z 34009KT 10SM CLR M05/M14 A3055 RMK AO2 SLP347 T10501144
KIAD 211152Z 34010KT 10SM CLR M06/M15 A3053 RMK AO2 SLP341 T10561150 11011 21056 53020
KIAD 211052Z 34010KT 10SM CLR M06/M15 A3051 RMK AO2 SLP334 T10561150
KIAD 210952Z 34011KT 10SM CLR M05/M14 A3048 RMK AO2 SLP326 T10501144
KIAD 210852Z 34012KT 10SM FEW050 M04/M14 A3047 RMK AO2 SLP321 T10391139 51004
KIAD 210752Z 35011KT 10SM SCT048 M03/M13 A3047 RMK AO2 SLP320 T10331133
KIAD 210652Z 34013KT 10SM BKN048 M02/M12 A3046 RMK AO2 SLP317 T10171122
KIAD 210552Z 34010KT 10SM SCT035 BKN055 M01/M11 A3046 RMK AO2 SLP316 T10111111 10022 21011 53006
KIAD 210452Z 34012KT 10SM SCT040 BKN055 M01/M11 A3044 RMK AO2 SLP311 T10061106 400331022
KIAD 210352Z 34011KT 10SM SCT040 OVC055 01/M11 A3044 RMK AO2 SLP310 T00061111
KIAD 210252Z 36013G23KT 10SM BKN042 BKN050 OVC065 01/M09 A3044 RMK AO2 SLP310 T00111094 53014